Time;durP1;ratioP1;P1;durP2;ratioP2;P2;SDS_P1;SDS_P2;PMS_P1;PMS_P2;Temp;Humidity;BMP_temperature;BMP_pressure;BME280_temperature;BME280_humidity;BME280_pressure;Samples;Min_cycle;Max_cycle;Signal;HPM_P1;HPM_P2
2023/01/02 00:01:11;;;;;;;1.00;1.00;;;6.90;81.80;;;6.03;68.98;95507.91;5034451;28;20281;-43
2023/01/02 00:03:38;;;;;;;0.80;0.80;;;6.90;81.80;;;6.02;68.79;95509.69;5050446;28;20188;-39
2023/01/02 00:06:06;;;;;;;0.80;0.80;;;6.90;81.90;;;6.04;68.83;95505.16;5034695;28;20193;-41
2023/01/02 00:08:33;;;;;;;1.10;1.10;;;6.90;81.90;;;6.03;68.80;95508.75;5050506;28;20531;-39
2023/01/02 00:11:00;;;;;;;0.90;0.90;;;6.90;82.00;;;6.02;68.90;95507.09;5034433;28;20189;-39
2023/01/02 00:13:27;;;;;;;0.80;0.80;;;6.90;82.00;;;6.00;69.06;95501.22;5034625;28;20197;-40
2023/01/02 00:15:54;;;;;;;0.80;0.80;;;6.90;82.00;;;6.00;68.95;95505.63;5034968;28;20201;-42
2023/01/02 00:18:21;;;;;;;0.70;0.70;;;6.90;82.10;;;6.01;68.89;95518.47;5034790;28;20284;-38
2023/01/02 00:20:49;;;;;;;0.70;0.70;;;6.90;82.30;;;6.01;69.06;95515.88;5050054;28;20267;-38
2023/01/02 00:23:16;;;;;;;0.88;0.88;;;6.90;82.00;;;6.04;68.96;95517.34;5034905;28;20209;-39
2023/01/02 00:25:43;;;;;;;0.80;0.80;;;6.90;81.90;;;6.05;69.33;95519.84;5034478;28;20185;-38
2023/01/02 00:28:10;;;;;;;0.90;0.90;;;7.00;82.10;;;6.07;69.13;95514.47;5037823;28;20197;-38
2023/01/02 00:30:38;;;;;;;0.70;0.70;;;7.00;82.10;;;6.07;69.01;95512.66;5038297;28;20563;-38
2023/01/02 00:33:06;;;;;;;0.90;0.90;;;7.00;82.10;;;6.09;nan;95507.31;5038192;28;20216;-38
2023/01/02 00:35:36;;;;;;;0.90;0.90;;;7.00;82.10;;;6.10;69.18;95508.94;5038185;28;20200;-38
2023/01/02 00:38:04;;;;;;;0.80;0.80;;;7.00;82.00;;;6.12;69.54;95506.22;5038068;28;20612;-38
2023/01/02 00:40:31;;;;;;;0.80;0.80;;;7.00;82.10;;;6.12;69.32;95501.00;5037862;28;20610;-38
2023/01/02 00:42:58;;;;;;;0.80;0.80;;;7.00;82.10;;;6.13;69.39;95500.00;5037944;28;20203;-40
2023/01/02 00:45:25;;;;;;;0.80;0.80;;;7.00;82.10;;;6.15;69.34;95490.28;5038165;28;20189;-38
2023/01/02 00:47:52;;;;;;;0.80;0.80;;;7.00;82.10;;;6.16;69.31;95495.31;5037896;28;20192;-38
2023/01/02 00:50:19;;;;;;;0.80;0.80;;;7.10;82.20;;;6.17;69.26;95493.56;5037634;28;20193;-38
2023/01/02 00:52:47;;;;;;;0.70;0.70;;;7.10;82.20;;;6.17;69.33;95493.56;5037761;28;20193;-39
2023/01/02 00:55:13;;;;;;;0.80;0.80;;;7.00;82.10;;;6.19;69.25;95494.22;5038007;28;20614;-39
2023/01/02 00:57:41;;;;;;;0.80;0.80;;;7.10;82.10;;;6.20;69.28;95496.69;5038036;28;20666;-38
2023/01/02 01:00:08;;;;;;;0.90;0.90;;;7.10;82.10;;;6.21;69.37;95489.69;5037696;28;20188;-38
2023/01/02 01:02:35;;;;;;;0.68;0.68;;;7.10;82.20;;;6.22;69.34;95489.50;5037380;28;20227;-38
2023/01/02 01:05:03;;;;;;;0.80;0.80;;;7.20;82.20;;;6.22;69.17;95489.50;5037542;28;20682;-38
2023/01/02 01:07:30;;;;;;;0.77;0.77;;;7.10;82.00;;;6.24;69.29;95487.59;5053008;28;20527;-38
2023/01/02 01:09:57;;;;;;;0.90;0.90;;;7.10;81.90;;;6.26;69.23;95477.00;5037480;28;20651;-38
2023/01/02 01:12:24;;;;;;;0.80;0.80;;;7.20;82.00;;;6.29;69.38;95475.91;5037306;28;20193;-38
2023/01/02 01:14:51;;;;;;;0.80;0.80;;;7.20;81.90;;;6.29;69.27;95471.50;5037376;28;20199;-39
2023/01/02 01:17:18;;;;;;;0.60;0.60;;;7.20;81.90;;;6.32;69.10;95475.59;5037361;28;20201;-42
2023/01/02 01:19:45;;;;;;;0.80;0.80;;;7.20;81.90;;;6.33;69.15;95475.44;5037267;28;20200;-38
2023/01/02 01:22:12;;;;;;;0.70;0.70;;;7.20;81.90;;;6.33;69.09;95470.22;5037026;28;20212;-39
2023/01/02 01:24:39;;;;;;;0.70;0.70;;;7.20;81.90;;;6.32;68.94;95473.78;5037191;28;20193;-38
2023/01/02 01:27:06;;;;;;;0.80;0.80;;;7.20;81.80;;;6.33;69.01;95478.03;5037293;28;20193;-38
2023/01/02 01:29:33;;;;;;;0.80;0.80;;;7.30;81.90;;;6.34;68.97;95469.25;5037092;28;20197;-38
2023/01/02 01:32:00;;;;;;;0.80;0.80;;;7.30;81.90;;;6.36;69.01;95469.94;5037043;28;20193;-39
2023/01/02 01:34:27;;;;;;;0.82;0.82;;;7.30;81.90;;;6.37;69.16;95466.38;5037013;28;20283;-41
2023/01/02 01:36:54;;;;;;;0.70;0.70;;;7.30;81.90;;;6.38;69.18;95464.56;5037225;28;20569;-44
2023/01/02 01:39:21;;;;;;;0.70;0.70;;;7.30;81.90;;;6.39;69.14;95472.22;5036499;28;20220;-38
2023/01/02 01:41:48;;;;;;;0.70;0.70;;;7.30;81.90;;;6.41;69.09;95462.47;5052338;28;20208;-41
2023/01/02 01:44:53;;;;;;;0.80;0.80;;;7.30;81.90;;;6.40;68.89;95463.44;5036858;28;20692;-39
2023/01/02 01:47:40;;;;;;;0.70;0.70;;;7.30;82.20;;;6.39;69.23;95458.41;5036737;28;20224;-44
2023/01/02 01:50:12;;;;;;;0.70;0.70;;;7.30;82.30;;;6.39;69.20;95459.19;5037005;28;20305;-42
2023/01/02 01:53:08;;;;;;;0.80;0.80;;;7.30;82.00;;;6.41;69.10;95454.66;5036494;28;20203;-39
2023/01/02 01:55:44;;;;;;;0.80;0.80;;;7.30;82.20;;;6.41;69.31;95453.84;5035868;28;20187;-41
2023/01/02 01:58:42;;;;;;;0.80;0.80;;;7.30;82.10;;;6.45;69.10;95449.16;5052330;28;20173;-42
2023/01/02 02:01:14;;;;;;;0.80;0.80;;;7.40;82.30;;;6.43;69.67;95445.88;5036024;28;20208;-39
2023/01/02 02:03:46;;;;;;;0.70;0.70;;;7.40;82.20;;;6.46;69.72;95449.00;5035871;28;20181;-41
2023/01/02 02:06:17;;;;;;;0.75;0.75;;;7.40;82.20;;;6.46;69.39;95445.56;5052362;28;20181;-41
2023/01/02 02:09:13;;;;;;;0.70;0.70;;;7.40;82.20;;;6.47;69.46;95440.22;5036550;28;20169;-42
2023/01/02 02:11:41;;;;;;;0.77;0.77;;;7.40;82.40;;;6.48;69.48;95441.84;5051810;28;20223;-39
2023/01/02 02:14:08;;;;;;;0.75;0.75;;;7.40;82.10;;;6.53;69.32;95441.38;5036601;28;20208;-38
2023/01/02 02:17:18;;;;;;;0.80;0.80;;;7.40;82.10;;;6.52;69.29;95437.16;5036277;28;20200;-38
2023/01/02 02:20:29;;;;;;;0.70;0.70;;;7.40;82.40;;;6.53;69.32;95431.78;5035450;28;20212;-38
2023/01/02 02:23:24;;;;;;;0.70;0.70;;;7.50;82.40;;;6.51;69.52;95430.31;5035930;28;20204;-38
2023/01/02 02:26:18;;;;;;;0.77;0.77;;;7.50;82.20;;;6.54;69.50;95424.78;5051652;28;20207;-38
2023/01/02 02:29:13;;;;;;;0.80;0.80;;;7.50;82.40;;;6.53;69.40;95429.19;5036367;28;20514;-38
2023/01/02 02:31:57;;;;;;;0.82;0.82;;;7.50;83.00;;;6.55;69.55;95429.00;5051372;28;20181;-39
2023/01/02 02:35:08;;;;;;;0.70;0.70;;;7.50;82.30;;;6.57;69.45;95425.28;5035091;28;20195;-38
2023/01/02 02:38:37;;;;;;;0.90;0.90;;;7.50;82.40;;;6.58;69.49;95428.72;5035034;28;20216;-38
2023/01/02 02:41:32;;;;;;;0.70;0.70;;;7.50;82.20;;;6.59;69.51;95419.91;5023996;28;20231;-39
2023/01/02 02:44:04;;;;;;;0.70;0.70;;;7.50;82.30;;;6.60;69.62;95418.94;5035848;28;20178;-38
2023/01/02 02:46:39;;;;;;;0.70;0.70;;;7.50;82.20;;;6.61;69.69;95414.56;5051441;28;20185;-40
2023/01/02 02:49:08;;;;;;;0.60;0.60;;;7.50;82.20;;;6.62;69.68;95413.59;5035246;28;20592;-38
2023/01/02 02:51:52;;;;;;;0.70;0.70;;;7.60;82.30;;;6.64;69.52;95414.22;5035355;28;20585;-39
2023/01/02 02:55:12;;;;;;;0.90;0.90;;;7.60;82.50;;;6.65;69.60;95410.66;5034717;28;20271;-38
2023/01/02 02:57:42;;;;;;;0.80;0.80;;;7.60;82.50;;;6.67;69.67;95413.94;5034429;28;20224;-39
2023/01/02 03:00:15;;;;;;;0.80;0.80;;;7.60;82.40;;;6.70;69.65;95409.22;5035943;28;20220;-39
2023/01/02 03:02:42;;;;;;;0.70;0.70;;;7.60;82.30;;;6.72;69.79;95407.25;5035181;28;20709;-38
2023/01/02 03:05:15;;;;;;;0.70;0.70;;;7.60;82.30;;;6.73;69.72;95406.31;5035566;28;20205;-39
2023/01/02 03:08:15;;;;;;;0.70;0.70;;;7.70;82.40;;;6.73;69.52;95403.69;5034360;28;20592;-39
2023/01/02 03:11:00;;;;;;;0.80;0.80;;;7.70;82.50;;;6.75;69.64;95394.91;5035300;28;20188;-41
2023/01/02 03:14:00;;;;;;;0.70;0.70;;;7.70;82.50;;;6.75;69.64;95402.72;5050708;28;20181;-38
2023/01/02 03:16:41;;;;;;;0.73;0.73;;;7.70;82.50;;;6.77;69.49;95395.56;5034380;28;20271;-38
2023/01/02 03:19:49;;;;;;;0.90;0.90;;;7.70;82.30;;;6.77;69.60;95398.19;5050965;28;20203;-39
2023/01/02 03:22:25;;;;;;;0.80;0.80;;;7.70;82.50;;;6.79;69.89;95398.84;5035164;28;20229;-39
2023/01/02 03:24:55;;;;;;;0.60;0.60;;;7.80;82.40;;;6.82;69.79;95401.97;5035248;28;20172;-35
2023/01/02 03:27:27;;;;;;;0.70;0.70;;;7.80;82.30;;;6.85;69.84;95399.03;5035044;28;20526;-38
2023/01/02 03:30:04;;;;;;;0.80;0.80;;;7.80;82.40;;;6.87;69.89;95393.66;5034253;28;20177;-35
2023/01/02 03:32:37;;;;;;;0.70;0.70;;;7.80;82.50;;;6.91;69.71;95395.00;5034909;28;20180;-35
2023/01/02 03:35:13;;;;;;;0.70;0.70;;;7.80;82.40;;;6.93;69.83;95398.25;5034156;28;20185;-45
2023/01/02 03:37:48;;;;;;;0.70;0.70;;;7.90;82.50;;;6.95;69.76;95398.91;5034201;28;20196;-38
2023/01/02 03:40:23;;;;;;;0.80;0.80;;;7.90;82.40;;;6.97;69.62;95402.19;5033934;28;20246;-38
2023/01/02 03:43:15;;;;;;;0.70;0.70;;;7.90;82.40;;;6.98;69.64;95400.38;5050400;28;20235;-38
2023/01/02 03:45:57;;;;;;;0.80;0.80;;;7.90;82.50;;;7.00;69.66;95396.63;5050623;28;20177;-41
2023/01/02 03:48:45;;;;;;;0.80;0.80;;;8.00;82.50;;;7.02;69.86;95397.31;5034185;28;20180;-41
2023/01/02 03:51:12;;;;;;;0.70;0.70;;;8.00;82.50;;;7.04;69.74;95403.19;5035025;28;20180;-38
2023/01/02 03:53:40;;;;;;;0.77;0.77;;;8.00;82.40;;;7.07;70.02;95398.63;5033751;28;20197;-39
2023/01/02 03:56:19;;;;;;;0.80;0.80;;;8.00;82.40;;;7.08;69.74;95403.69;5034218;28;20201;-38
2023/01/02 03:58:57;;;;;;;0.70;0.70;;;8.00;82.40;;;7.11;69.87;95405.16;5035029;28;20267;-39
2023/01/02 04:01:59;;;;;;;0.80;0.80;;;8.10;82.50;;;7.11;69.79;95405.16;5034292;28;20220;-38
2023/01/02 04:04:54;;;;;;;0.77;0.77;;;8.10;82.50;;;7.14;69.81;95400.44;5038821;28;20256;-39
2023/01/02 04:07:54;;;;;;;0.80;0.80;;;8.10;82.40;;;7.13;69.55;95404.03;5038706;28;20181;-38
2023/01/02 04:10:24;;;;;;;0.80;0.80;;;8.10;82.40;;;7.17;69.69;95402.72;5038648;28;20493;-38
2023/01/02 04:12:58;;;;;;;0.70;0.70;;;8.20;82.40;;;7.19;69.81;95402.59;5037844;28;20179;-38
2023/01/02 04:15:31;;;;;;;0.77;0.77;;;8.20;82.40;;;7.24;69.72;95407.31;5054251;28;20185;-38
2023/01/02 04:18:11;;;;;;;0.70;0.70;;;8.20;82.40;;;7.25;69.63;95403.72;5037941;28;20185;-38
2023/01/02 04:20:47;;;;;;;0.70;0.70;;;8.20;82.40;;;7.26;69.65;95403.56;5038486;28;20668;-38
2023/01/02 04:23:26;;;;;;;0.77;0.77;;;8.20;82.40;;;7.28;69.69;95406.03;5053992;28;20660;-40
2023/01/02 04:26:09;;;;;;;0.80;0.80;;;8.20;82.40;;;7.28;69.62;95401.63;5037559;28;20276;-41
2023/01/02 04:28:37;;;;;;;0.63;0.63;;;8.30;82.40;;;7.29;69.33;95397.25;5037453;28;20215;-38
2023/01/02 04:31:41;;;;;;;0.60;0.60;;;8.30;82.30;;;7.32;69.59;95402.13;5053841;28;20663;-38
2023/01/02 04:34:12;;;;;;;0.73;0.73;;;8.30;82.40;;;7.32;69.66;95394.28;5038337;28;20514;-38
2023/01/02 04:36:41;;;;;;;0.80;0.80;;;8.30;82.40;;;7.32;69.67;95395.13;5038227;28;20181;-38
2023/01/02 04:39:08;;;;;;;0.70;0.70;;;8.30;82.30;;;7.34;69.52;95397.56;5037250;28;20189;-38
2023/01/02 04:41:37;;;;;;;0.70;0.70;;;8.30;82.30;;;7.33;69.65;95393.31;5037725;28;20224;-38
2023/01/02 04:44:05;;;;;;;0.70;0.70;;;8.30;82.20;;;7.36;69.60;95403.44;5053664;28;20192;-39
2023/01/02 04:46:32;;;;;;;0.75;0.75;;;8.30;82.20;;;7.36;69.71;95396.44;5037913;28;20197;-38
2023/01/02 04:48:59;;;;;;;0.70;0.70;;;8.30;82.20;;;7.37;69.67;95394.63;5038046;28;20561;-38
2023/01/02 04:51:26;;;;;;;0.73;0.73;;;8.30;82.20;;;7.39;69.70;95394.50;5038114;28;20196;-38
2023/01/02 04:53:54;;;;;;;0.80;0.80;;;8.30;82.20;;;7.39;69.56;95397.91;5037928;28;20322;-38
2023/01/02 04:56:21;;;;;;;0.80;0.80;;;8.40;82.30;;;7.42;69.66;95396.75;5037757;28;20231;-38
2023/01/02 04:58:49;;;;;;;0.80;0.80;;;8.40;82.30;;;7.42;69.56;95399.38;5053540;28;20304;-38
2023/01/02 05:01:19;;;;;;;0.70;0.70;;;8.40;82.30;;;7.42;69.57;95401.97;5037906;28;20211;-38
2023/01/02 05:03:51;;;;;;;0.70;0.70;;;8.40;82.20;;;7.41;69.88;95401.19;5037321;28;20578;-38
2023/01/02 05:06:19;;;;;;;0.70;0.70;;;8.40;82.20;;;7.43;69.54;95408.84;5037876;28;20189;-38
2023/01/02 05:08:46;;;;;;;0.80;0.80;;;8.40;82.20;;;7.45;69.85;95409.50;5037660;28;20747;-42
2023/01/02 05:11:18;;;;;;;0.60;0.60;;;8.40;82.30;;;7.46;69.66;95408.53;5037503;28;20268;-38
2023/01/02 05:13:45;;;;;;;0.70;0.70;;;8.40;82.30;;;7.46;69.77;95411.16;5037404;28;20274;-38
2023/01/02 05:16:12;;;;;;;0.82;0.82;;;8.40;82.30;;;7.46;69.73;95416.38;5037391;28;20200;-38
2023/01/02 05:18:39;;;;;;;0.70;0.70;;;8.40;82.30;;;7.45;69.98;95412.91;5037366;28;20225;-41
2023/01/02 05:23:58;;;;;;;0.70;0.70;;;8.40;82.30;;;7.45;69.75;95410.31;5037125;28;20200;-39
2023/01/02 05:26:26;;;;;;;0.70;0.70;;;8.50;82.40;;;7.45;69.77;95406.91;5037230;28;20208;-38
2023/01/02 05:28:53;;;;;;;0.75;0.75;;;8.50;82.30;;;7.45;69.86;95409.50;5037128;28;20710;-40
2023/01/02 05:31:21;;;;;;;0.70;0.70;;;8.40;82.30;;;7.45;69.95;95405.09;5037076;28;20207;-43
2023/01/02 05:33:52;;;;;;;0.70;0.70;;;8.40;82.30;;;7.45;69.95;95407.69;5036929;28;20196;-38
2023/01/02 05:36:21;;;;;;;0.80;0.80;;;8.50;82.30;;;7.44;69.85;95394.81;5037022;28;20219;-39
2023/01/02 05:38:49;;;;;;;0.80;0.80;;;8.40;82.30;;;7.45;70.03;95402.47;5036981;28;20189;-41
2023/01/02 05:41:16;;;;;;;0.75;0.75;;;8.50;82.30;;;7.47;69.91;95410.97;5036783;28;20236;-40
2023/01/02 05:43:44;;;;;;;0.70;0.70;;;8.50;83.00;;;7.45;70.10;95407.69;5036952;28;20230;-44
2023/01/02 05:46:19;;;;;;;0.80;0.80;;;8.50;82.30;;;7.47;69.87;95404.91;5036953;28;20188;-42
2023/01/02 05:48:46;;;;;;;0.73;0.73;;;8.50;82.30;;;7.46;69.92;95398.09;5036897;28;20238;-46
2023/01/02 05:51:16;;;;;;;0.70;0.70;;;8.50;82.30;;;7.48;70.15;95393.50;5036816;28;20246;-46
2023/01/02 05:53:44;;;;;;;0.80;0.80;;;8.50;82.30;;;7.48;69.93;95391.72;5036499;28;20211;-46
2023/01/02 05:56:17;;;;;;;0.70;0.70;;;8.50;82.20;;;7.49;69.76;95395.16;5036533;28;20207;-46
2023/01/02 05:58:47;;;;;;;0.80;0.80;;;8.50;82.30;;;7.49;69.73;95382.09;5036730;28;20181;-35
2023/01/02 06:01:18;;;;;;;0.80;0.80;;;8.50;82.20;;;7.49;69.89;95388.13;5036748;28;20635;-39
2023/01/02 06:03:54;;;;;;;0.80;0.80;;;8.50;82.20;;;7.50;69.84;95389.75;5036386;28;20196;-52
2023/01/02 06:06:34;;;;;;;0.80;0.80;;;8.50;82.30;;;7.51;69.82;95386.19;5036479;28;20477;-35
2023/01/02 06:09:03;;;;;;;0.98;0.98;;;8.50;82.30;;;7.53;69.93;95386.00;5036563;28;20181;-35
2023/01/02 06:11:30;;;;;;;0.70;0.70;;;8.50;82.30;;;7.55;69.96;95388.47;5036364;28;20239;-46
2023/01/02 06:13:57;;;;;;;0.80;0.80;;;8.50;83.10;;;7.56;69.91;95393.53;5036457;28;20271;-35
2023/01/02 06:16:25;;;;;;;0.65;0.65;;;8.50;82.30;;;7.55;69.91;95389.28;5036297;28;20197;-40
2023/01/02 06:18:52;;;;;;;0.70;0.70;;;8.50;82.30;;;7.57;69.93;95391.72;5036462;28;20686;-46
2023/01/02 06:21:21;;;;;;;0.80;0.80;;;8.50;82.30;;;7.56;70.01;95393.53;5036169;28;20288;-36
2023/01/02 06:23:55;;;;;;;0.77;0.77;;;8.50;82.30;;;7.58;69.87;95401.19;5035694;28;20236;-38
2023/01/02 06:26:25;;;;;;;0.80;0.80;;;8.50;82.30;;;7.58;69.95;95406.41;5036013;28;20185;-38
2023/01/02 06:29:00;;;;;;;0.70;0.70;;;8.50;82.30;;;7.60;69.91;95404.47;5036114;28;20187;-38
2023/01/02 06:31:28;;;;;;;0.63;0.63;;;8.60;82.30;;;7.59;69.84;95405.44;5036059;28;20192;-48
2023/01/02 06:33:58;;;;;;;0.80;0.80;;;8.60;82.30;;;7.60;69.82;95407.88;5035792;28;20197;-39
2023/01/02 06:36:30;;;;;;;0.70;0.70;;;8.60;82.30;;;7.60;69.58;95404.47;5036150;28;20192;-38
2023/01/02 06:38:58;;;;;;;0.73;0.73;;;8.60;82.30;;;7.59;69.90;95397.59;5035879;28;20181;-38
2023/01/02 06:41:25;;;;;;;0.70;0.70;;;8.60;82.20;;;7.59;69.56;95405.44;5051333;28;20268;-38
2023/01/02 06:43:53;;;;;;;0.70;0.70;;;8.60;82.20;;;7.60;69.87;95407.88;5035436;28;20304;-40
2023/01/02 06:46:22;;;;;;;0.80;0.80;;;8.60;82.20;;;7.59;69.78;95408.06;5035710;28;20188;-39
2023/01/02 06:48:50;;;;;;;0.80;0.80;;;8.60;82.30;;;7.59;69.83;95398.44;5035655;28;20193;-38
2023/01/02 06:51:22;;;;;;;0.70;0.70;;;8.60;82.20;;;7.59;69.90;95406.28;5035568;28;20654;-39
2023/01/02 06:53:49;;;;;;;0.80;0.80;;;8.60;82.20;;;7.60;69.78;95404.47;5035348;28;20209;-39
2023/01/02 06:56:18;;;;;;;0.80;0.80;;;8.60;82.20;;;7.58;69.92;95409.03;5035477;28;20201;-38
2023/01/02 06:58:46;;;;;;;0.73;0.73;;;8.60;82.30;;;7.57;69.86;95407.38;5035570;28;20530;-38
2023/01/02 07:01:20;;;;;;;0.70;0.70;;;8.60;82.20;;;7.58;69.71;95411.63;5035448;28;20194;-41
2023/01/02 07:03:48;;;;;;;0.70;0.70;;;8.60;82.20;;;7.59;69.98;95408.06;5035309;28;20243;-39
2023/01/02 07:06:20;;;;;;;0.70;0.70;;;8.60;82.30;;;7.58;69.98;95409.03;5035625;28;20201;-39
2023/01/02 07:08:48;;;;;;;0.80;0.80;;;8.60;82.30;;;7.59;69.95;95408.06;5035654;28;20211;-39
2023/01/02 07:11:22;;;;;;;0.80;0.80;;;8.60;82.30;;;7.60;70.01;95413.09;5035500;28;20195;-41
2023/01/02 07:13:51;;;;;;;0.80;0.80;;;8.60;82.30;;;7.57;69.83;95404.78;5050858;28;20279;-39
2023/01/02 07:16:21;;;;;;;0.80;0.80;;;8.60;82.30;;;7.58;69.90;95411.63;5035273;28;20204;-39
2023/01/02 07:18:50;;;;;;;0.82;0.82;;;8.60;82.30;;;7.57;70.01;95410.84;5035194;28;20643;-36
2023/01/02 07:21:18;;;;;;;0.70;0.70;;;8.60;82.20;;;7.58;69.83;95420.31;5035296;28;20201;-39
2023/01/02 07:23:46;;;;;;;0.70;0.70;;;8.60;82.20;;;7.56;69.94;95421.44;5034906;28;20205;-39
2023/01/02 07:26:13;;;;;;;0.80;0.80;;;8.60;82.30;;;7.56;69.86;95422.25;5035066;28;20203;-39
2023/01/02 07:28:40;;;;;;;0.80;0.80;;;8.50;82.20;;;7.58;70.00;95422.91;5035293;28;20300;-39
2023/01/02 07:31:12;;;;;;;0.98;0.98;;;8.60;82.30;;;7.59;69.84;95421.09;5035244;28;20200;-43
2023/01/02 07:33:40;;;;;;;0.60;0.60;;;8.60;82.30;;;7.61;69.97;95413.94;5035175;28;20199;-42
2023/01/02 07:36:16;;;;;;;0.70;0.70;;;8.60;82.40;;;7.63;70.06;95414.56;5034989;28;20682;-38
2023/01/02 07:38:48;;;;;;;0.60;0.60;;;8.60;82.40;;;7.65;69.97;95417.84;5035362;28;20269;-40
2023/01/02 07:41:19;;;;;;;0.80;0.80;;;8.60;82.40;;;7.66;70.13;95427.31;5034928;28;20237;-38
2023/01/02 07:43:47;;;;;;;0.70;0.70;;;8.60;83.20;;;7.64;70.04;95429.25;5034916;28;20299;-38
2023/01/02 07:46:17;;;;;;;0.80;0.80;;;8.60;82.40;;;7.64;70.06;95424.88;5034917;28;20210;-38
2023/01/02 07:48:45;;;;;;;0.63;0.63;;;8.60;82.40;;;7.65;70.31;95431.72;5034878;28;20173;-38
2023/01/02 07:51:13;;;;;;;0.80;0.80;;;8.60;82.30;;;7.68;70.06;95422.75;5034855;28;20568;-38
2023/01/02 07:53:47;;;;;;;0.80;0.80;;;8.60;82.40;;;7.69;70.22;95419.19;5034721;28;20176;-38
2023/01/02 07:56:14;;;;;;;0.80;0.80;;;8.70;82.50;;;7.72;70.28;95425.88;5034663;28;20216;-39
2023/01/02 07:58:41;;;;;;;0.70;0.70;;;8.70;82.50;;;7.74;70.21;95424.72;5034649;28;20254;-38
2023/01/02 08:01:14;;;;;;;0.80;0.80;;;8.70;82.50;;;7.74;69.95;95419.50;5034743;28;20624;-38
2023/01/02 08:03:42;;;;;;;0.70;0.70;;;8.70;82.40;;;7.75;70.07;95412.47;5034483;28;20291;-39
2023/01/02 08:06:12;;;;;;;0.70;0.70;;;8.70;82.50;;;7.78;69.87;95415.59;5034958;28;20524;-38
2023/01/02 08:08:39;;;;;;;0.63;0.63;;;8.70;82.40;;;7.79;69.94;95414.59;5035008;28;20278;-38
2023/01/02 08:11:16;;;;;;;0.70;0.70;;;8.70;82.40;;;7.84;69.83;95416.75;5034956;28;20254;-38
2023/01/02 08:13:44;;;;;;;0.70;0.70;;;8.70;82.40;;;7.85;69.99;95413.97;5034479;28;20604;-38
2023/01/02 08:16:16;;;;;;;0.80;0.80;;;8.70;82.40;;;7.87;70.09;95419.00;5034533;28;20197;-36
2023/01/02 08:18:44;;;;;;;0.73;0.73;;;8.80;82.50;;;7.89;69.96;95418.88;5034833;28;20209;-36
2023/01/02 08:21:11;;;;;;;0.80;0.80;;;8.80;82.50;;;7.93;69.82;95418.34;5034484;28;20220;-35
2023/01/02 08:23:39;;;;;;;0.70;0.70;;;8.80;82.50;;;7.95;70.00;95415.59;5034592;28;20302;-35
2023/01/02 08:26:09;;;;;;;0.70;0.70;;;8.90;82.50;;;7.99;69.97;95420.31;5034443;28;20508;-35
2023/01/02 08:28:38;;;;;;;0.70;0.70;;;8.90;82.60;;;8.02;69.88;95417.41;5034426;28;20189;-35
2023/01/02 08:31:19;;;;;;;0.80;0.80;;;8.90;82.60;;;8.03;69.88;95412.97;5034726;28;20196;-35
2023/01/02 08:33:47;;;;;;;0.60;0.60;;;8.90;82.50;;;8.02;69.79;95414.78;5033440;28;20189;-35
2023/01/02 08:36:14;;;;;;;0.70;0.70;;;9.00;82.50;;;8.04;69.84;95412.00;5034403;28;20656;-36
2023/01/02 08:38:42;;;;;;;0.80;0.80;;;9.00;82.50;;;8.08;69.83;95413.31;5034370;28;20200;-35
2023/01/02 08:41:09;;;;;;;0.80;0.80;;;9.00;82.50;;;8.13;70.00;95420.66;5034227;28;20236;-35
2023/01/02 08:43:36;;;;;;;0.90;0.90;;;9.00;82.50;;;8.17;69.90;95425.38;5034247;28;20227;-36
2023/01/02 08:46:08;;;;;;;0.80;0.80;;;9.00;82.50;;;8.21;69.80;95430.28;5033428;28;20589;-35
2023/01/02 08:48:36;;;;;;;0.70;0.70;;;9.10;82.60;;;8.25;69.99;95427.19;5036342;28;20520;-35
2023/01/02 08:51:04;;;;;;;0.90;0.90;;;9.10;82.60;;;8.28;69.87;95423.44;5037900;28;20216;-36
2023/01/02 08:53:31;;;;;;;0.70;0.70;;;9.10;82.50;;;8.31;69.81;95430.94;5037928;28;20219;-36
2023/01/02 08:56:25;;;;;;;0.70;0.70;;;9.20;82.60;;;8.31;69.58;95426.53;5037791;28;20628;-35
2023/01/02 08:59:06;;;;;;;0.80;0.80;;;9.20;82.50;;;8.31;69.68;95437.00;5037878;28;20234;-36
2023/01/02 09:01:34;;;;;;;0.75;0.75;;;9.20;82.50;;;8.33;69.89;95427.16;5037118;28;20184;-36
2023/01/02 09:04:02;;;;;;;0.82;0.82;;;9.20;82.50;;;8.38;70.06;95428.50;5037433;28;20250;-36
2023/01/02 09:06:37;;;;;;;0.70;0.70;;;9.30;82.50;;;8.42;69.80;95440.22;5037577;28;20668;-35
2023/01/02 09:09:05;;;;;;;0.75;0.75;;;9.30;82.60;;;8.45;69.81;95440.72;5037576;28;20526;-36
2023/01/02 09:11:49;;;;;;;0.80;0.80;;;9.40;82.70;;;8.52;69.78;95434.84;5037605;28;20177;-39
2023/01/02 09:14:20;;;;;;;0.90;0.90;;;9.40;82.70;;;8.58;69.86;95435.03;5051648;28;20185;-37
2023/01/02 09:16:48;;;;;;;0.80;0.80;;;9.40;82.70;;;8.65;70.08;95435.16;5037545;28;20609;-36
2023/01/02 09:19:15;;;;;;;0.80;0.80;;;9.50;82.70;;;8.71;69.93;95425.84;5037461;28;20263;-35
2023/01/02 09:21:42;;;;;;;0.70;0.70;;;9.50;82.70;;;8.77;69.92;95425.19;5037572;28;20196;-36
2023/01/02 09:24:10;;;;;;;0.80;0.80;;;9.50;82.70;;;8.83;69.78;95432.34;5037070;28;20593;-36
2023/01/02 09:26:40;;;;;;;0.90;0.90;;;9.60;82.70;;;8.87;69.66;95430.22;5036351;28;20194;-36
2023/01/02 09:29:11;;;;;;;0.70;0.70;;;9.60;82.80;;;8.92;69.94;95430.53;5037503;28;20211;-36
2023/01/02 09:31:39;;;;;;;0.70;0.70;;;9.70;82.80;;;8.96;69.77;95419.56;5037337;28;20185;-36
2023/01/02 09:34:06;;;;;;;0.80;0.80;;;9.70;82.70;;;9.01;69.65;95413.81;5037031;28;20227;-35
2023/01/02 09:36:33;;;;;;;0.70;0.70;;;9.80;82.70;;;9.05;69.50;95407.25;5037060;28;20532;-36
2023/01/02 09:39:00;;;;;;;0.80;0.80;;;9.80;82.50;;;9.09;69.38;95411.19;5036054;28;20216;-36
2023/01/02 09:41:51;;;;;;;0.90;0.90;;;9.90;82.60;;;9.13;69.47;95417.69;5036710;28;20243;-35
2023/01/02 09:44:23;;;;;;;0.70;0.70;;;9.90;82.40;;;9.15;69.58;95407.03;5036743;28;20212;-35
2023/01/02 09:47:00;;;;;;;0.80;0.80;;;9.90;82.50;;;9.19;69.52;95408.34;5036856;28;20189;-35
2023/01/02 09:49:41;;;;;;;0.95;0.95;;;10.00;81.40;;;9.23;69.52;95403.59;5036924;28;20259;-36
2023/01/02 09:52:29;;;;;;;0.80;0.80;;;10.00;81.30;;;9.24;69.26;95395.56;5036040;28;20180;-36
2023/01/02 09:54:56;;;;;;;0.70;0.70;;;10.00;81.20;;;9.25;69.19;95398.97;5036566;28;20180;-35
2023/01/02 09:57:26;;;;;;;0.90;0.90;;;10.10;81.10;;;9.24;68.91;95397.34;5036625;28;20192;-35
2023/01/02 10:00:08;;;;;;;0.70;0.70;;;10.10;80.90;;;9.23;69.05;95395.75;5036608;28;20192;-36
2023/01/02 10:03:17;;;;;;;0.75;0.75;;;10.10;80.90;;;9.24;69.13;95389.50;5036442;28;20693;-35
2023/01/02 10:06:06;;;;;;;0.60;0.60;;;10.10;80.70;;;9.25;69.22;95378.03;5036384;28;20627;-36
2023/01/02 10:09:11;;;;;;;0.75;0.75;;;10.10;80.90;;;9.29;69.36;95382.78;5036701;28;20188;-36
2023/01/02 10:11:57;;;;;;;0.70;0.70;;;10.10;80.70;;;9.33;69.47;95379.81;5036670;28;20511;-36
2023/01/02 10:14:58;;;;;;;0.70;0.70;;;10.20;80.90;;;9.37;69.28;95381.09;5036158;28;20600;-36
2023/01/02 10:17:32;;;;;;;0.70;0.70;;;10.20;81.70;;;9.39;69.30;95382.56;5035650;28;20200;-36
2023/01/02 10:20:17;;;;;;;0.70;0.70;;;10.20;81.00;;;9.44;69.18;95382.84;5051891;28;20608;-35
2023/01/02 10:23:17;;;;;;;0.70;0.70;;;10.30;81.00;;;9.46;69.11;95374.84;5051065;28;20192;-36
2023/01/02 10:25:56;;;;;;;0.80;0.80;;;10.30;81.00;;;9.47;68.83;95365.97;5035970;28;20190;-36
2023/01/02 10:28:44;;;;;;;0.70;0.70;;;10.30;80.80;;;9.48;68.82;95367.59;5051754;28;20180;-36
2023/01/02 10:31:22;;;;;;;0.80;0.80;;;10.30;80.90;;;9.48;68.94;95364.97;5036399;28;20207;-36
2023/01/02 10:33:56;;;;;;;0.60;0.60;;;10.30;80.80;;;9.50;68.91;95365.63;5035883;28;20188;-36
2023/01/02 10:36:38;;;;;;;0.70;0.70;;;10.30;80.70;;;9.53;68.86;95362.69;5035930;28;20177;-36
2023/01/02 10:39:21;;;;;;;0.60;0.60;;;10.40;80.70;;;9.57;69.00;95361.34;5036015;28;20662;-36
2023/01/02 10:41:53;;;;;;;0.70;0.70;;;10.40;80.80;;;9.58;69.02;95357.72;5051088;28;20233;-36
2023/01/02 10:44:35;;;;;;;0.77;0.77;;;10.40;80.90;;;9.61;68.99;95353.94;5051930;28;20224;-44
2023/01/02 10:47:35;;;;;;;0.70;0.70;;;10.40;80.80;;;9.65;68.96;95354.41;5051765;28;20283;-40
2023/01/02 10:50:14;;;;;;;0.80;0.80;;;10.50;80.80;;;9.67;68.95;95349.81;5035808;28;20306;-46
2023/01/02 10:52:53;;;;;;;0.70;0.70;;;10.50;80.70;;;9.69;68.38;95358.28;5033951;28;20188;-35
2023/01/02 10:55:39;;;;;;;0.60;0.60;;;10.50;80.40;;;9.69;68.59;95353.91;5022185;28;20196;-46
2023/01/02 10:58:18;;;;;;;0.80;0.80;;;10.50;80.30;;;9.72;68.44;95350.91;5018626;28;20197;-42
2023/01/02 11:00:48;;;;;;;0.70;0.70;;;10.60;80.50;;;9.76;68.32;95346.97;5020333;28;20515;-49
2023/01/02 11:03:26;;;;;;;0.90;0.90;;;10.60;80.60;;;9.80;68.04;95343.97;5032473;28;20258;-41
2023/01/02 11:05:56;;;;;;;0.70;0.70;;;10.60;80.30;;;9.82;68.04;95340.19;5016871;28;20192;-39